Phu Lien, Viet Nam

2:44 AM ICT on August 04, 2015 (GMT +0700)
Noibai International | | Change Station
CLOSE
Current Station
Airport
Location: Ha Noi,
Elevation: 36 ft
Nearby Weather Stations

Elev 36 ft 21.22 °N, 105.81 °E | Updated 14 minutes ago

Light Rain
Light Rain
75 °F
Feels Like 75 °F
N
6
Wind Variable Wind from East

Today
High -- | Low -- °F
--% Chance of Precip.
Yesterday
High -- | Low -- °F
Precip. -- in
5:28 AM 6:30 PM
Waning Gibbous, 84% visible
Pressure 29.77 in
Visibility 6.2 miles
Clouds Scattered Clouds 1000 ft
Mostly Cloudy 10000 ft
Dew Point 73 °F
Humidity 94%
Rainfall 0.00 in
Snow Depth Not available.
UV 0 out of 12
Pollen Not available.
Air Quality Not available.
Flu Activity Not available.
METAR VVNB 031930Z 08005KT 9999 -RA SCT010 BKN100 24/23 Q1008 NOSIG

More Conditions Fewer Conditions

Pressure 29.77 in
Visibility 6.2 miles
Clouds Scattered Clouds 1000 ft
Mostly Cloudy 10000 ft
Dew Point 73 °F
Humidity 94%
Rainfall 0.00 in
Snow Depth Not available.
UV 0 out of 12
Pollen Not available.
Air Quality Not available.
Flu Activity Not available.
METAR VVNB 031930Z 08005KT 9999 -RA SCT010 BKN100 24/23 Q1008 NOSIG

More Conditions Fewer Conditions

10-Day Weather Forecast

×

Almanac

Astronomy

Aug. 04, 2015 Rise Set
Actual Time
Civil Twilight
Nautical Twilight
Astronomical Twilight
Moon
Length of Visible Light
Length of Day
Tomorrow will be .
, % of the Moon is Illuminated

Today's Extremes

Country Highs Country Lows

Community

WunderPhotos

Upload Photos

1,843,717 photos uploaded!

WunderBlogs® & News

Nearby

Air Quality

  Air Quality AQ Index Pollutant
Not available.

Snow Depth

Station Depth Elevation

Earthquake Activity

City Distance Mag. Time & Date
Minimum magnitude displayed is 2.5.

Coastal Water Temperatures

Place Temperature

Stations

Nearby Weather Stations

Station Location Temp. Windchill Dew Point Humidity Wind Precip. Elev Updated Type